logo
Search for airport 
image banner adimage banner adimage banner ad
image banner ad

MMMX - Mexico Aeropuerto Internacional Benito Juarez

Located in Mexico, Mexico

ICAO - MMMX, IATA - MEX

Data provided by Airmate  

General information

Coordinates: N19°26'9" W99°4'24"
Elevation is 7297 feet MSL.
 
View others Airports in Distrito Federal

Operational data

Special qualification required
Current time UTC:
Current local time:
Weather
METAR: MMMX 231709Z 11003KT 6SM SKC 23/M05 A3034 NOSIG RMK HZY CI
TAF: TAF MMMX 231035Z 2312/2412 00000KT P6SM SKC TX29/2321Z TN08/2312Z FM231500 06005KT P6SM SKC FM231800 07008KT P6SM SKC FM240600 34005KT P6SM SKC
View NOTAMs / SUP AIP / TFR affecting this airport [VIEW]
Communications frequencies: [VIEW]

Runways:

RWY identifierQFULength (ft)Width (ft)SurfaceLDA (ft)
05L59°12861148ASP
23R239°12861148ASP
05R59°13432148ASP
23L239°13432148ASP

Airport contact information

Address: Mexico Mexico

Satellite view of MMMX